createdAt,value
2022-11-25T00:00:01.073Z,100275.25
2022-11-25T00:02:27.694Z,100271.78
2022-11-25T00:04:54.370Z,100276.28
2022-11-25T00:07:21.034Z,100270.59
2022-11-25T00:09:47.612Z,100265.03
2022-11-25T00:12:14.203Z,100267.78
2022-11-25T00:14:40.700Z,100272.81
2022-11-25T00:17:07.466Z,100277.56
2022-11-25T00:19:33.987Z,100283.84
2022-11-25T00:22:00.507Z,100277.31
2022-11-25T00:24:27.128Z,100275.34
2022-11-25T00:26:53.602Z,100282.38
2022-11-25T00:29:20.066Z,100283.28
2022-11-25T00:31:46.599Z,100283.16
2022-11-25T00:34:14.680Z,100283.50
2022-11-25T00:36:41.221Z,100285.88
2022-11-25T00:39:11.659Z,100282.28
2022-11-25T00:41:57.171Z,100281.34
2022-11-25T00:44:36.728Z,100290.31
2022-11-25T00:47:05.232Z,100288.00
2022-11-25T00:49:32.463Z,100287.63
2022-11-25T00:51:59.001Z,100293.84
2022-11-25T00:54:25.749Z,100295.75
2022-11-25T00:56:52.593Z,100291.06
2022-11-25T00:59:19.182Z,100284.25
2022-11-25T01:01:45.964Z,100299.69
2022-11-25T01:04:12.588Z,100287.84
2022-11-25T01:06:39.265Z,100301.06
2022-11-25T01:09:07.068Z,100296.59
2022-11-25T01:11:33.798Z,100310.28
2022-11-25T01:14:01.655Z,100303.38
2022-11-25T01:16:29.255Z,100296.22
2022-11-25T01:18:55.994Z,100307.34
2022-11-25T01:21:25.149Z,100305.66
2022-11-25T01:23:53.532Z,100308.91
2022-11-25T01:26:25.063Z,100307.28
2022-11-25T01:29:00.459Z,100310.97
2022-11-25T01:31:29.571Z,100314.50
2022-11-25T01:33:58.593Z,100308.81
2022-11-25T01:36:26.692Z,100322.09
2022-11-25T01:38:56.196Z,100326.25
2022-11-25T01:41:24.067Z,100325.72
2022-11-25T01:44:09.338Z,100326.84
2022-11-25T01:46:41.743Z,100320.34
2022-11-25T01:49:14.850Z,100313.66
2022-11-25T01:51:57.220Z,100318.28
2022-11-25T01:54:28.351Z,100318.03
2022-11-25T01:57:13.612Z,100315.66
2022-11-25T01:59:46.367Z,100317.94
2022-11-25T02:02:14.752Z,100320.72
2022-11-25T02:04:43.718Z,100311.19
2022-11-25T02:07:19.615Z,100315.94
2022-11-25T02:09:47.420Z,100326.78
2022-11-25T02:12:16.446Z,100320.50
2022-11-25T02:14:43.555Z,100316.50
2022-11-25T02:17:10.123Z,100313.88
2022-11-25T02:19:51.310Z,100323.09
2022-11-25T02:22:25.854Z,100312.94
2022-11-25T02:25:01.509Z,100314.69
2022-11-25T02:27:28.484Z,100308.03
2022-11-25T02:29:55.137Z,100311.63
2022-11-25T02:32:23.287Z,100311.41
2022-11-25T02:34:50.507Z,100316.53
2022-11-25T02:37:21.141Z,100326.59
2022-11-25T02:39:48.362Z,100321.00
2022-11-25T02:42:17.691Z,100325.25
2022-11-25T02:44:44.136Z,100330.16
2022-11-25T02:47:10.640Z,100329.69
2022-11-25T02:49:37.108Z,100334.00
2022-11-25T02:52:03.670Z,100342.59
2022-11-25T02:54:30.167Z,100325.72
2022-11-25T02:56:56.605Z,100318.31
2022-11-25T02:59:23.095Z,100330.22
2022-11-25T03:01:49.782Z,100323.00
2022-11-25T03:04:16.324Z,100323.06
2022-11-25T03:06:42.852Z,100324.94
2022-11-25T03:09:09.879Z,100330.16
2022-11-25T03:11:54.821Z,100327.59
2022-11-25T03:14:21.363Z,100322.50
2022-11-25T03:16:47.967Z,100323.78
2022-11-25T03:19:14.495Z,100326.84
2022-11-25T03:21:41.026Z,100337.66
2022-11-25T03:24:07.685Z,100336.97
2022-11-25T03:26:34.430Z,100329.13
2022-11-25T03:29:00.922Z,100331.56
2022-11-25T03:31:27.431Z,100337.81
2022-11-25T03:33:55.632Z,100341.28
2022-11-25T03:36:22.152Z,100340.91
2022-11-25T03:38:48.684Z,100343.75
2022-11-25T03:41:15.151Z,100343.94
2022-11-25T03:43:41.685Z,100342.66
2022-11-25T03:46:08.272Z,100351.66
2022-11-25T03:48:34.802Z,100357.09
2022-11-25T03:51:01.306Z,100345.03
2022-11-25T03:53:27.856Z,100346.59
2022-11-25T03:55:54.352Z,100349.50
2022-11-25T03:58:20.999Z,100350.13
2022-11-25T04:00:47.523Z,100351.06
2022-11-25T04:03:14.079Z,100356.34
2022-11-25T04:05:41.527Z,100356.13
2022-11-25T04:08:08.074Z,100362.09
2022-11-25T04:10:34.675Z,100368.44
2022-11-25T04:13:01.306Z,100363.63
2022-11-25T04:15:27.771Z,100367.34
2022-11-25T04:17:54.270Z,100360.19
2022-11-25T04:20:20.812Z,100362.09
2022-11-25T04:22:47.272Z,100367.53
2022-11-25T04:25:13.805Z,100368.63
2022-11-25T04:27:40.328Z,100368.94
2022-11-25T04:30:07.590Z,100367.84
2022-11-25T04:32:34.313Z,100371.16
2022-11-25T04:35:00.856Z,100370.63
2022-11-25T04:37:27.729Z,100376.78
2022-11-25T04:39:54.198Z,100388.97
2022-11-25T04:42:32.525Z,100387.38
2022-11-25T04:47:51.311Z,100383.53
2022-11-25T04:50:20.615Z,100387.06
2022-11-25T04:52:47.182Z,100393.09
2022-11-25T04:55:13.816Z,100398.28
2022-11-25T04:57:40.570Z,100402.38
2022-11-25T05:00:09.192Z,100394.69
2022-11-25T05:02:36.156Z,100403.16
2022-11-25T05:05:02.802Z,100401.59
2022-11-25T05:07:29.865Z,100392.06
2022-11-25T05:09:57.151Z,100400.00
2022-11-25T05:12:26.194Z,100398.38
2022-11-25T05:14:52.933Z,100404.81
2022-11-25T05:17:22.252Z,100412.03
2022-11-25T05:19:50.079Z,100413.75
2022-11-25T05:22:19.405Z,100418.97
2022-11-25T05:24:46.149Z,100411.97
2022-11-25T05:27:12.757Z,100416.81
2022-11-25T05:29:39.265Z,100414.59
2022-11-25T05:32:06.466Z,100408.66
2022-11-25T05:34:33.062Z,100420.72
2022-11-25T05:36:59.717Z,100422.22
2022-11-25T05:39:26.251Z,100421.81
2022-11-25T05:41:52.841Z,100424.50
2022-11-25T05:44:22.937Z,100416.81
2022-11-25T05:46:50.352Z,100419.75
2022-11-25T05:49:17.485Z,100426.09
2022-11-25T05:51:44.642Z,100428.09
2022-11-25T05:54:11.215Z,100425.72
2022-11-25T05:56:38.065Z,100429.72
2022-11-25T05:59:05.418Z,100428.56
2022-11-25T06:01:33.190Z,100430.13
2022-11-25T06:04:01.111Z,100435.78
2022-11-25T06:06:27.774Z,100441.78
2022-11-25T06:08:54.389Z,100439.78
2022-11-25T06:11:21.052Z,100441.50
2022-11-25T06:13:47.658Z,100435.94
2022-11-25T06:16:17.446Z,100449.94
2022-11-25T06:18:44.279Z,100451.34
2022-11-25T06:21:11.830Z,100443.16
2022-11-25T06:23:39.419Z,100448.41
2022-11-25T06:26:08.175Z,100448.72
2022-11-25T06:28:34.868Z,100443.16
2022-11-25T06:31:09.990Z,100445.56
2022-11-25T06:33:36.875Z,100445.72
2022-11-25T06:36:08.213Z,100451.22
2022-11-25T06:38:35.560Z,100452.16
2022-11-25T06:41:04.150Z,100453.88
2022-11-25T06:43:31.765Z,100451.16
2022-11-25T06:46:03.378Z,100451.47
2022-11-25T06:48:30.199Z,100447.41
2022-11-25T06:50:58.281Z,100453.69
2022-11-25T06:53:25.407Z,100451.69
2022-11-25T06:56:04.488Z,100445.53
2022-11-25T06:58:35.744Z,100459.97
2022-11-25T07:01:04.874Z,100455.84
2022-11-25T07:03:31.630Z,100464.69
2022-11-25T07:05:59.394Z,100464.44
2022-11-25T07:08:32.393Z,100466.78
2022-11-25T07:11:34.642Z,100465.81
2022-11-25T07:14:03.870Z,100475.53
2022-11-25T07:16:32.288Z,100471.53
2022-11-25T07:19:02.188Z,100472.31
2022-11-25T07:21:30.633Z,100474.22
2022-11-25T07:23:59.457Z,100481.06
2022-11-25T07:26:29.393Z,100482.31
2022-11-25T07:28:59.305Z,100484.38
2022-11-25T07:31:33.569Z,100479.28
2022-11-25T07:34:05.089Z,100482.69
2022-11-25T07:36:33.320Z,100478.81
2022-11-25T07:39:02.112Z,100478.88
2022-11-25T07:41:29.309Z,100480.22
2022-11-25T07:43:58.233Z,100481.88
2022-11-25T07:46:36.098Z,100484.09
2022-11-25T07:49:05.813Z,100487.00
2022-11-25T07:51:35.839Z,100483.91
2022-11-25T07:54:04.883Z,100481.91
2022-11-25T07:56:34.108Z,100482.28
2022-11-25T07:59:00.691Z,100481.28
2022-11-25T08:01:27.208Z,100487.97
2022-11-25T08:03:54.230Z,100496.84
2022-11-25T08:06:22.997Z,100497.75
2022-11-25T08:08:50.830Z,100497.53
2022-11-25T08:11:23.718Z,100505.44
2022-11-25T08:13:50.574Z,100498.06
2022-11-25T08:16:20.281Z,100505.38
2022-11-25T08:18:47.021Z,100505.19
2022-11-25T08:21:15.357Z,100501.13
2022-11-25T08:23:44.015Z,100511.50
2022-11-25T08:26:14.060Z,100503.59
2022-11-25T08:28:41.543Z,100512.13
2022-11-25T08:31:11.487Z,100511.22
2022-11-25T08:33:38.548Z,100512.75
2022-11-25T08:36:06.369Z,100513.28
2022-11-25T08:38:33.394Z,100514.03
2022-11-25T08:41:00.444Z,100516.59
2022-11-25T08:43:29.510Z,100517.78
2022-11-25T08:45:56.686Z,100520.88
2022-11-25T08:48:23.404Z,100528.25
2022-11-25T08:50:54.409Z,100523.56
2022-11-25T08:53:22.002Z,100535.50
2022-11-25T08:55:49.525Z,100529.16
2022-11-25T08:58:16.079Z,100536.63
2022-11-25T09:00:44.376Z,100544.47
2022-11-25T09:03:11.317Z,100543.50
2022-11-25T09:05:42.693Z,100539.72
2022-11-25T09:08:10.285Z,100534.09
2022-11-25T09:10:38.062Z,100539.66
2022-11-25T09:13:05.165Z,100534.59
2022-11-25T09:15:32.698Z,100524.69
2022-11-25T09:18:01.336Z,100525.84
2022-11-25T09:20:27.903Z,100523.22
2022-11-25T09:22:54.449Z,100525.59
2022-11-25T09:25:22.613Z,100528.91
2022-11-25T09:27:49.364Z,100534.59
2022-11-25T09:30:16.642Z,100525.91
2022-11-25T09:32:44.029Z,100536.19
2022-11-25T09:35:10.671Z,100539.22
2022-11-25T09:37:37.234Z,100540.19
2022-11-25T09:40:04.523Z,100531.19
2022-11-25T09:42:58.902Z,100537.44
2022-11-25T09:45:52.690Z,100535.97
2022-11-25T09:48:52.004Z,100542.53
2022-11-25T09:51:27.400Z,100544.53
2022-11-25T09:53:58.303Z,100548.63
2022-11-25T09:56:41.131Z,100545.69
2022-11-25T09:59:18.236Z,100541.16
2022-11-25T10:01:58.876Z,100552.16
2022-11-25T10:04:38.219Z,100545.47
2022-11-25T10:07:11.221Z,100547.94
2022-11-25T10:09:38.011Z,100553.84
2022-11-25T10:12:25.775Z,100549.78
2022-11-25T10:14:59.629Z,100547.34
2022-11-25T10:17:46.231Z,100562.06
2022-11-25T10:20:16.926Z,100555.81
2022-11-25T10:22:46.691Z,100559.97
2022-11-25T10:25:15.338Z,100562.97
2022-11-25T10:27:47.582Z,100558.84
2022-11-25T10:30:24.061Z,100563.38
2022-11-25T10:33:19.176Z,100562.50
2022-11-25T10:35:50.874Z,100551.75
2022-11-25T10:38:27.986Z,100567.72
2022-11-25T10:40:55.005Z,100565.84
2022-11-25T10:43:21.698Z,100566.28
2022-11-25T10:45:55.638Z,100567.19
2022-11-25T10:48:54.534Z,100574.63
2022-11-25T10:51:46.359Z,100568.25
2022-11-25T10:54:27.696Z,100569.94
2022-11-25T10:57:00.661Z,100570.84
2022-11-25T10:59:29.147Z,100569.69
2022-11-25T11:02:19.539Z,100571.88
2022-11-25T11:05:08.803Z,100570.28
2022-11-25T11:07:38.692Z,100565.84
2022-11-25T11:10:26.209Z,100564.09
2022-11-25T11:13:00.715Z,100566.44
2022-11-25T11:15:41.233Z,100567.59
2022-11-25T11:18:36.883Z,100565.88
2022-11-25T11:21:07.152Z,100567.88
2022-11-25T11:23:51.575Z,100573.44
2022-11-25T11:26:33.589Z,100572.81
2022-11-25T11:29:01.990Z,100566.91
2022-11-25T11:31:40.630Z,100570.78
2022-11-25T11:34:23.781Z,100566.69
2022-11-25T11:37:08.910Z,100573.31
2022-11-25T11:39:50.767Z,100571.09
2022-11-25T11:42:36.551Z,100575.53
2022-11-25T11:45:24.250Z,100574.16
2022-11-25T11:48:26.802Z,100569.91
2022-11-25T11:51:08.039Z,100570.06
2022-11-25T11:53:54.266Z,100574.16
2022-11-25T11:56:35.246Z,100570.47
2022-11-25T11:59:30.211Z,100576.38
2022-11-25T12:02:17.684Z,100579.94
2022-11-25T12:05:13.538Z,100574.22
2022-11-25T12:07:58.423Z,100572.50
2022-11-25T12:10:30.141Z,100571.44
2022-11-25T12:13:23.199Z,100576.75
2022-11-25T12:16:23.957Z,100575.41
2022-11-25T12:19:02.475Z,100572.78
2022-11-25T12:21:50.994Z,100569.72
2022-11-25T12:24:33.214Z,100573.97
2022-11-25T12:27:13.528Z,100572.16
2022-11-25T12:30:01.671Z,100569.09
2022-11-25T12:32:49.694Z,100574.69
2022-11-25T12:35:57.483Z,100575.81
2022-11-25T12:38:42.566Z,100583.56
2022-11-25T12:41:20.554Z,100587.81
2022-11-25T12:43:51.143Z,100579.69
2022-11-25T12:46:33.167Z,100578.03
2022-11-25T12:49:00.263Z,100586.28
2022-11-25T12:51:46.940Z,100583.38
2022-11-25T12:54:22.695Z,100580.91
2022-11-25T12:56:56.267Z,100582.09
2022-11-25T13:00:17.486Z,100581.56
2022-11-25T13:03:07.053Z,100590.69
2022-11-25T13:05:58.837Z,100589.84
2022-11-25T13:08:43.586Z,100585.28
2022-11-25T13:11:22.857Z,100583.91
2022-11-25T13:14:07.971Z,100585.28
2022-11-25T13:16:35.408Z,100594.38
2022-11-25T13:19:09.619Z,100586.59
2022-11-25T13:21:36.093Z,100586.47
2022-11-25T13:24:02.762Z,100596.91
2022-11-25T13:26:34.071Z,100590.19
2022-11-25T13:29:05.840Z,100580.03
2022-11-25T13:31:35.138Z,100579.56
2022-11-25T13:34:25.456Z,100596.03
2022-11-25T13:36:57.522Z,100589.97
2022-11-25T13:39:24.046Z,100596.19
2022-11-25T13:42:00.909Z,100598.41
2022-11-25T13:44:32.361Z,100599.69
2022-11-25T13:47:20.151Z,100598.03
2022-11-25T13:49:49.248Z,100608.25
2022-11-25T13:52:15.741Z,100602.03
2022-11-25T13:54:50.903Z,100602.59
2022-11-25T13:57:25.166Z,100606.81
2022-11-25T14:00:07.001Z,100608.34
2022-11-25T14:02:44.963Z,100613.44
2022-11-25T14:05:21.667Z,100615.59
2022-11-25T14:08:08.172Z,100619.44
2022-11-25T14:10:45.788Z,100625.06
2022-11-25T14:13:38.169Z,100619.53
2022-11-25T14:16:17.074Z,100611.94
2022-11-25T14:22:05.875Z,100619.19
2022-11-25T14:24:45.925Z,100614.59
2022-11-25T14:27:16.401Z,100616.28
2022-11-25T14:29:56.481Z,100621.16
2022-11-25T14:32:28.274Z,100617.78
2022-11-25T14:35:10.173Z,100623.63
2022-11-25T14:37:49.580Z,100630.97
2022-11-25T14:40:26.875Z,100629.56
2022-11-25T14:43:00.793Z,100635.28
2022-11-25T14:45:30.600Z,100635.34
2022-11-25T14:47:57.478Z,100634.69
2022-11-25T14:50:40.625Z,100637.75
2022-11-25T14:53:09.896Z,100645.47
2022-11-25T14:55:37.086Z,100638.41
2022-11-25T14:58:04.288Z,100641.13
2022-11-25T15:00:30.757Z,100647.38
2022-11-25T15:03:03.144Z,100655.09
2022-11-25T15:05:35.710Z,100657.16
2022-11-25T15:08:08.076Z,100646.69
2022-11-25T15:10:42.609Z,100657.53
2022-11-25T15:13:34.470Z,100650.75
2022-11-25T15:16:11.565Z,100660.41
2022-11-25T15:18:39.721Z,100659.22
2022-11-25T15:21:12.508Z,100660.91
2022-11-25T15:23:40.635Z,100666.50
2022-11-25T15:26:18.810Z,100667.63
2022-11-25T15:28:45.873Z,100670.34
2022-11-25T15:31:19.352Z,100667.31
2022-11-25T15:33:47.539Z,100660.59
2022-11-25T15:36:14.119Z,100668.31
2022-11-25T15:38:43.680Z,100671.38
2022-11-25T15:41:19.319Z,100668.31
2022-11-25T15:43:52.894Z,100674.00
2022-11-25T15:46:19.925Z,100666.03
2022-11-25T15:48:48.419Z,100662.78
2022-11-25T15:51:27.919Z,100659.72
2022-11-25T15:54:31.283Z,100652.31
2022-11-25T15:57:03.464Z,100653.91
2022-11-25T15:59:55.602Z,100664.69
2022-11-25T16:02:36.738Z,100661.09
2022-11-25T16:05:12.918Z,100668.00
2022-11-25T16:07:49.880Z,100667.69
2022-11-25T16:10:28.363Z,100666.56
2022-11-25T16:13:21.233Z,100665.69
2022-11-25T16:16:07.232Z,100659.56
2022-11-25T16:18:49.510Z,100655.44
2022-11-25T16:21:20.041Z,100655.97
2022-11-25T16:23:52.571Z,100659.22
2022-11-25T16:26:24.451Z,100661.59
2022-11-25T16:28:54.908Z,100671.69
2022-11-25T16:31:22.348Z,100664.91
2022-11-25T16:33:49.719Z,100664.72
2022-11-25T16:36:16.381Z,100671.00
2022-11-25T16:38:43.026Z,100668.53
2022-11-25T16:41:18.677Z,100662.66
2022-11-25T16:43:45.335Z,100659.22
2022-11-25T16:46:16.664Z,100664.53
2022-11-25T16:48:43.327Z,100666.34
2022-11-25T16:51:19.456Z,100667.88
2022-11-25T16:53:46.943Z,100673.19
2022-11-25T16:56:16.655Z,100678.38
2022-11-25T16:58:44.659Z,100681.88
2022-11-25T17:01:15.606Z,100684.94
2022-11-25T17:03:43.083Z,100684.56
2022-11-25T17:06:22.171Z,100683.56
2022-11-25T17:08:49.715Z,100690.97
2022-11-25T17:11:22.155Z,100688.94
2022-11-25T17:13:52.296Z,100680.47
2022-11-25T17:16:22.291Z,100680.50
2022-11-25T17:18:50.122Z,100688.66
2022-11-25T17:21:17.644Z,100690.19
2022-11-25T17:23:45.627Z,100683.88
2022-11-25T17:26:21.213Z,100686.59
2022-11-25T17:28:54.503Z,100690.88
2022-11-25T17:31:25.022Z,100692.72
2022-11-25T17:33:51.567Z,100692.34
2022-11-25T17:36:18.044Z,100694.81
2022-11-25T17:38:44.807Z,100689.88
2022-11-25T17:41:13.678Z,100688.84
2022-11-25T17:43:40.428Z,100690.13
2022-11-25T17:46:11.360Z,100695.75
2022-11-25T17:48:38.586Z,100695.25
2022-11-25T17:51:07.571Z,100692.72
2022-11-25T17:53:37.957Z,100701.78
2022-11-25T17:56:32.400Z,100698.41
2022-11-25T17:59:03.276Z,100704.41
2022-11-25T18:01:30.248Z,100704.31
2022-11-25T18:03:56.889Z,100704.16
2022-11-25T18:06:23.454Z,100701.91
2022-11-25T18:08:49.991Z,100702.31
2022-11-25T18:11:18.811Z,100699.75
2022-11-25T18:13:47.679Z,100698.38
2022-11-25T18:16:18.039Z,100698.38
2022-11-25T18:18:44.685Z,100701.75
2022-11-25T18:21:11.747Z,100699.47
2022-11-25T18:23:38.256Z,100695.72
2022-11-25T18:26:05.157Z,100702.28
2022-11-25T18:28:32.576Z,100708.25
2022-11-25T18:31:03.597Z,100705.31
2022-11-25T18:33:30.876Z,100707.19
2022-11-25T18:35:57.662Z,100706.31
2022-11-25T18:38:24.278Z,100718.16
2022-11-25T18:40:53.834Z,100714.03
2022-11-25T18:43:24.875Z,100723.50
2022-11-25T18:45:53.538Z,100719.13
2022-11-25T18:48:25.304Z,100720.75
2022-11-25T18:50:53.712Z,100720.31
2022-11-25T18:53:20.686Z,100729.50
2022-11-25T18:55:49.136Z,100720.75
2022-11-25T18:58:23.537Z,100720.59
2022-11-25T19:00:51.747Z,100721.34
2022-11-25T19:03:21.402Z,100721.81
2022-11-25T19:05:48.106Z,100726.53
2022-11-25T19:08:14.732Z,100734.19
2022-11-25T19:10:44.554Z,100732.72
2022-11-25T19:13:32.992Z,100737.81
2022-11-25T19:16:07.258Z,100732.91
2022-11-25T19:18:35.412Z,100729.09
2022-11-25T19:21:02.069Z,100735.19
2022-11-25T19:23:29.101Z,100733.22
2022-11-25T19:26:01.143Z,100738.88
2022-11-25T19:28:30.496Z,100738.56
2022-11-25T19:31:00.227Z,100744.72
2022-11-25T19:33:36.472Z,100744.63
2022-11-25T19:36:03.828Z,100751.81
2022-11-25T19:38:31.121Z,100754.94
2022-11-25T19:40:57.946Z,100754.63
2022-11-25T19:43:27.189Z,100751.06
2022-11-25T19:45:55.501Z,100745.78
2022-11-25T19:48:27.222Z,100752.56
2022-11-25T19:50:59.762Z,100759.94
2022-11-25T19:53:33.565Z,100766.75
2022-11-25T19:56:04.139Z,100757.75
2022-11-25T19:58:31.199Z,100756.91
2022-11-25T20:01:01.031Z,100774.47
2022-11-25T20:03:30.980Z,100776.31
2022-11-25T20:05:57.673Z,100777.53
2022-11-25T20:08:27.411Z,100788.69
2022-11-25T20:10:54.535Z,100783.63
2022-11-25T20:13:23.498Z,100783.00
2022-11-25T20:15:50.762Z,100786.38
2022-11-25T20:18:22.140Z,100794.84
2022-11-25T20:20:55.992Z,100790.78
2022-11-25T20:23:43.621Z,100786.31
2022-11-25T20:26:17.832Z,100801.66
2022-11-25T20:28:45.128Z,100803.19
2022-11-25T20:31:12.679Z,100796.19
2022-11-25T20:33:40.735Z,100801.72
2022-11-25T20:36:14.005Z,100799.19
2022-11-25T20:38:46.654Z,100807.31
2022-11-25T20:41:14.096Z,100808.72
2022-11-25T20:43:42.651Z,100801.63
2022-11-25T20:46:16.579Z,100808.00
2022-11-25T20:48:44.473Z,100802.47
2022-11-25T20:51:21.762Z,100805.47
2022-11-25T20:53:50.868Z,100805.53
2022-11-25T20:56:19.450Z,100808.72
2022-11-25T20:58:46.887Z,100807.66
2022-11-25T21:01:14.727Z,100815.13
2022-11-25T21:03:45.336Z,100812.47
2022-11-25T21:06:41.110Z,100810.78
2022-11-25T21:09:16.866Z,100809.72
2022-11-25T21:11:43.651Z,100811.88
2022-11-25T21:14:14.555Z,100818.88
2022-11-25T21:16:41.011Z,100818.72
2022-11-25T21:19:07.779Z,100808.81
2022-11-25T21:21:36.922Z,100814.19
2022-11-25T21:24:16.876Z,100814.22
2022-11-25T21:26:43.459Z,100809.16
2022-11-25T21:29:16.108Z,100813.16
2022-11-25T21:31:43.367Z,100817.72
2022-11-25T21:34:12.070Z,100814.81
2022-11-25T21:36:39.666Z,100817.69
2022-11-25T21:39:12.971Z,100819.44
2022-11-25T21:41:39.511Z,100814.81
2022-11-25T21:44:07.689Z,100824.06
2022-11-25T21:46:34.290Z,100815.13
2022-11-25T21:49:00.940Z,100823.81
2022-11-25T21:51:27.398Z,100819.28
2022-11-25T21:53:54.421Z,100815.03
2022-11-25T21:56:30.754Z,100815.41
2022-11-25T21:58:59.812Z,100821.50
2022-11-25T22:01:26.428Z,100819.16
2022-11-25T22:03:53.198Z,100820.00
2022-11-25T22:06:23.582Z,100824.38
2022-11-25T22:08:51.035Z,100824.59
2022-11-25T22:11:21.653Z,100831.94
2022-11-25T22:13:49.113Z,100831.63
2022-11-25T22:16:18.824Z,100827.38
2022-11-25T22:18:45.464Z,100833.75
2022-11-25T22:21:14.266Z,100838.75
2022-11-25T22:23:42.227Z,100835.91
2022-11-25T22:26:33.040Z,100843.69
2022-11-25T22:29:00.462Z,100840.34
2022-11-25T22:31:27.900Z,100845.75
2022-11-25T22:33:55.145Z,100845.13
2022-11-25T22:36:28.802Z,100840.75
2022-11-25T22:38:56.309Z,100853.78
2022-11-25T22:41:23.088Z,100850.28
2022-11-25T22:43:51.981Z,100857.63
2022-11-25T22:46:19.214Z,100861.69
2022-11-25T22:48:46.255Z,100868.25
2022-11-25T22:51:20.166Z,100872.09
2022-11-25T22:53:47.058Z,100872.03
2022-11-25T22:56:18.442Z,100873.50
2022-11-25T22:58:45.837Z,100872.50
2022-11-25T23:01:17.005Z,100875.25
2022-11-25T23:03:44.635Z,100865.09
2022-11-25T23:06:13.248Z,100868.88
2022-11-25T23:08:40.452Z,100872.03
2022-11-25T23:11:16.013Z,100870.09
2022-11-25T23:13:42.731Z,100869.09
2022-11-25T23:16:10.352Z,100878.19
2022-11-25T23:18:39.817Z,100875.81
2022-11-25T23:21:19.977Z,100871.84
2022-11-25T23:23:46.524Z,100878.19
2022-11-25T23:26:13.860Z,100878.53
2022-11-25T23:28:40.550Z,100876.13
2022-11-25T23:31:09.671Z,100882.44
2022-11-25T23:33:38.000Z,100874.94
2022-11-25T23:36:24.698Z,100882.09
2022-11-25T23:38:55.244Z,100876.53
2022-11-25T23:41:27.209Z,100884.19
2022-11-25T23:43:54.968Z,100887.53
2022-11-25T23:46:25.137Z,100886.16
2022-11-25T23:49:01.212Z,100882.44
2022-11-25T23:51:29.326Z,100887.00
2022-11-25T23:53:57.584Z,100884.31
2022-11-25T23:56:27.042Z,100893.63
2022-11-25T23:58:53.658Z,100895.22
